createdAt,value
2023-05-02T00:00:29.491Z,2.80
2023-05-02T00:05:32.938Z,3.35
2023-05-02T00:10:36.558Z,3.22
2023-05-02T00:15:41.457Z,3.30
2023-05-02T00:25:48.152Z,4.63
2023-05-02T00:30:53.094Z,2.88
2023-05-02T00:35:56.718Z,6.45
2023-05-02T00:41:00.131Z,3.22
2023-05-02T00:46:05.384Z,2.63
2023-05-02T00:51:12.330Z,2.95
2023-05-02T00:56:16.155Z,3.53
2023-05-02T01:01:35.464Z,2.70
2023-05-02T01:07:00.501Z,2.70
2023-05-02T01:12:08.265Z,5.60
2023-05-02T01:17:16.061Z,4.60
2023-05-02T01:22:21.242Z,3.72
2023-05-02T01:27:35.689Z,3.58
2023-05-02T01:32:42.929Z,4.07
2023-05-02T01:37:48.192Z,5.20
2023-05-02T01:42:53.309Z,7.03
2023-05-02T01:47:59.950Z,5.70
2023-05-02T01:53:05.440Z,6.95
2023-05-02T01:58:09.277Z,8.70
2023-05-02T02:03:15.527Z,6.25
2023-05-02T02:08:19.294Z,5.97
2023-05-02T02:13:29.028Z,3.45
2023-05-02T02:18:39.084Z,3.78
2023-05-02T02:23:45.059Z,7.40
2023-05-02T02:28:49.401Z,6.38
2023-05-02T02:33:54.609Z,3.45
2023-05-02T02:39:10.095Z,4.35
2023-05-02T02:44:24.712Z,3.30
2023-05-02T02:49:37.159Z,6.72
2023-05-02T02:54:47.652Z,8.73
2023-05-02T02:59:55.609Z,3.35
2023-05-02T03:05:02.651Z,7.13
2023-05-02T03:10:08.178Z,7.47
2023-05-02T03:15:24.958Z,6.82
2023-05-02T03:20:30.081Z,8.80
2023-05-02T03:25:33.590Z,7.20
2023-05-02T03:30:40.862Z,6.03
2023-05-02T03:35:45.780Z,5.95
2023-05-02T03:45:52.415Z,3.65
2023-05-02T03:50:57.316Z,4.65
2023-05-02T04:01:03.907Z,3.10
2023-05-02T04:06:09.090Z,5.30
2023-05-02T04:11:12.625Z,3.08
2023-05-02T04:16:16.120Z,5.18
2023-05-02T04:21:21.061Z,3.20
2023-05-02T04:26:24.520Z,5.90
2023-05-02T04:31:28.292Z,3.17
2023-05-02T04:36:34.232Z,3.70
2023-05-02T04:41:37.819Z,3.35
2023-05-02T04:46:41.485Z,4.07
2023-05-02T04:51:46.584Z,4.45
2023-05-02T04:56:50.031Z,4.63
2023-05-02T05:01:53.576Z,3.90
2023-05-02T05:06:58.575Z,4.55
2023-05-02T05:12:02.271Z,3.75
2023-05-02T05:17:05.805Z,3.55
2023-05-02T05:22:10.708Z,4.40
2023-05-02T05:27:14.216Z,3.17
2023-05-02T05:32:17.730Z,2.33
2023-05-02T05:37:23.078Z,2.42
2023-05-02T05:42:27.321Z,3.28
2023-05-02T05:47:30.908Z,4.15
2023-05-02T05:52:36.072Z,3.55
2023-05-02T05:57:39.538Z,4.28
2023-05-02T06:02:43.102Z,4.85
2023-05-02T06:07:48.122Z,6.45
2023-05-02T06:12:51.687Z,4.13
2023-05-02T06:17:55.376Z,7.03
2023-05-02T06:23:00.193Z,3.60
2023-05-02T06:28:03.703Z,3.53
2023-05-02T06:33:09.836Z,2.45
2023-05-02T06:38:14.750Z,2.75
2023-05-02T06:43:19.143Z,3.00
2023-05-02T06:48:22.944Z,3.45
2023-05-02T06:53:27.867Z,2.75
2023-05-02T06:58:31.903Z,2.17
2023-05-02T07:03:35.457Z,3.05
2023-05-02T07:08:40.350Z,1.90
2023-05-02T07:13:44.615Z,2.22
2023-05-02T07:18:48.231Z,2.63
2023-05-02T07:23:53.113Z,2.90
2023-05-02T07:28:56.571Z,3.33
2023-05-02T07:34:00.051Z,2.60
2023-05-02T07:39:05.218Z,2.45
2023-05-02T07:44:09.190Z,2.28
2023-05-02T07:49:12.790Z,3.17
2023-05-02T07:54:21.757Z,2.05
2023-05-02T07:59:25.345Z,3.40
2023-05-02T08:04:29.281Z,3.65
2023-05-02T08:09:34.332Z,2.60
2023-05-02T08:14:37.880Z,5.13
2023-05-02T08:19:41.373Z,2.75
2023-05-02T08:24:46.287Z,1.50
2023-05-02T08:29:49.892Z,2.78
2023-05-02T08:34:56.664Z,1.77
2023-05-02T08:40:02.013Z,2.45
2023-05-02T08:45:10.565Z,3.97
2023-05-02T08:50:14.156Z,2.60
2023-05-02T08:55:19.555Z,1.80
2023-05-02T09:00:23.572Z,2.35
2023-05-02T09:05:27.187Z,1.80
2023-05-02T09:10:32.709Z,1.90
2023-05-02T09:15:36.233Z,2.47
2023-05-02T09:20:42.536Z,2.72
2023-05-02T09:25:47.778Z,2.22
2023-05-02T09:30:51.236Z,2.92
2023-05-02T09:35:56.078Z,2.03
2023-05-02T09:41:03.403Z,3.92
2023-05-02T09:46:08.997Z,2.30
2023-05-02T09:51:19.136Z,2.33
2023-05-02T09:56:24.902Z,2.00
2023-05-02T10:01:29.725Z,3.08
2023-05-02T10:06:34.487Z,1.50
2023-05-02T10:11:41.312Z,2.58
2023-05-02T10:16:56.821Z,1.95
2023-05-02T10:22:01.568Z,3.08
2023-05-02T10:27:07.657Z,3.00
2023-05-02T10:32:12.955Z,2.40
2023-05-02T10:37:18.654Z,2.47
2023-05-02T10:42:24.374Z,2.65
2023-05-02T10:47:29.436Z,3.10
2023-05-02T10:52:34.529Z,1.50
2023-05-02T10:58:14.208Z,2.28
2023-05-02T11:03:56.656Z,2.00
2023-05-02T11:09:35.409Z,1.90
2023-05-02T11:14:50.987Z,2.28
2023-05-02T11:20:27.805Z,5.85
2023-05-02T11:25:39.923Z,3.22
2023-05-02T11:30:48.711Z,2.45
2023-05-02T11:35:52.307Z,3.13
2023-05-02T11:40:57.961Z,2.80
2023-05-02T11:46:03.669Z,4.28
2023-05-02T11:51:07.455Z,3.22
2023-05-02T11:56:11.191Z,2.40
2023-05-02T12:01:17.651Z,2.10
2023-05-02T12:06:21.601Z,2.22
2023-05-02T12:11:25.403Z,2.00
2023-05-02T12:16:31.112Z,2.73
2023-05-02T12:21:35.017Z,1.95
2023-05-02T12:26:38.623Z,2.78
2023-05-02T12:31:52.702Z,3.13
2023-05-02T12:36:56.347Z,3.67
2023-05-02T12:41:59.805Z,2.58
2023-05-02T12:47:04.759Z,2.58
2023-05-02T12:52:08.380Z,2.50
2023-05-02T12:57:12.187Z,3.60
2023-05-02T13:02:17.149Z,4.28
2023-05-02T13:07:20.646Z,4.80
2023-05-02T13:12:24.100Z,2.40
2023-05-02T13:17:29.140Z,2.38
2023-05-02T13:22:32.776Z,2.92
2023-05-02T13:27:36.441Z,3.37
2023-05-02T13:32:42.074Z,2.33
2023-05-02T13:37:45.691Z,2.30
2023-05-02T13:42:49.182Z,2.03
2023-05-02T13:47:54.235Z,2.47
2023-05-02T13:52:57.873Z,2.00
2023-05-02T13:58:01.687Z,2.17
2023-05-02T14:03:07.057Z,2.20
2023-05-02T14:08:10.729Z,4.82
2023-05-02T14:13:14.314Z,3.37
2023-05-02T14:18:19.290Z,4.63
2023-05-02T14:23:22.789Z,2.42
2023-05-02T14:28:27.275Z,2.67
2023-05-02T14:38:35.553Z,1.90
2023-05-02T14:43:39.618Z,2.20
2023-05-02T14:48:44.561Z,3.65
2023-05-02T14:53:50.248Z,4.68
2023-05-02T14:58:53.917Z,2.72
2023-05-02T15:04:06.525Z,3.93
2023-05-02T15:09:12.205Z,4.05
2023-05-02T15:14:15.742Z,3.22
2023-05-02T15:19:22.700Z,3.47
2023-05-02T15:24:26.182Z,5.82
2023-05-02T15:29:29.719Z,3.15
2023-05-02T15:34:34.651Z,3.25
2023-05-02T15:39:38.337Z,5.40
2023-05-02T15:44:41.778Z,5.28
2023-05-02T15:49:46.766Z,5.05
2023-05-02T15:54:51.736Z,4.68
2023-05-02T15:59:55.453Z,7.50
2023-05-02T16:05:00.302Z,4.80
2023-05-02T16:10:04.214Z,5.68
2023-05-02T16:15:09.622Z,6.10
2023-05-02T16:25:19.002Z,6.03
2023-05-02T16:30:24.108Z,4.20
2023-05-02T16:35:29.154Z,8.10
2023-05-02T16:40:32.678Z,6.53
2023-05-02T16:45:36.178Z,6.70
2023-05-02T16:50:41.171Z,5.63
2023-05-02T16:55:44.698Z,10.10
2023-05-02T17:00:48.232Z,6.63
2023-05-02T17:05:53.241Z,9.68
2023-05-02T17:10:57.014Z,6.50
2023-05-02T17:16:01.105Z,5.77
2023-05-02T17:21:06.773Z,4.35
2023-05-02T17:26:14.539Z,4.97
2023-05-02T17:31:18.383Z,5.47
2023-05-02T17:36:23.301Z,7.87
2023-05-02T17:41:27.297Z,8.82
2023-05-02T17:46:31.148Z,17.37
2023-05-02T17:51:36.097Z,16.87
2023-05-02T17:56:39.700Z,22.90
2023-05-02T18:01:43.351Z,32.83
2023-05-02T18:06:48.401Z,31.77
2023-05-02T18:11:52.329Z,38.20
2023-05-02T18:16:56.562Z,31.07
2023-05-02T18:22:01.597Z,28.45
2023-05-02T18:27:05.315Z,18.30
2023-05-02T18:32:08.873Z,17.50
2023-05-02T18:37:13.757Z,15.15
2023-05-02T18:42:17.242Z,11.52
2023-05-02T18:47:21.812Z,17.65
2023-05-02T18:52:26.761Z,15.23
2023-05-02T18:57:30.586Z,15.27
2023-05-02T19:02:34.183Z,14.90
2023-05-02T19:07:39.196Z,11.73
2023-05-02T19:12:43.864Z,16.05
2023-05-02T19:23:00.236Z,10.95
2023-05-02T19:28:12.259Z,10.60
2023-05-02T19:38:20.374Z,7.82
2023-05-02T19:43:23.884Z,8.05
2023-05-02T19:48:27.597Z,4.25
2023-05-02T19:53:32.649Z,9.18
2023-05-02T19:58:36.486Z,13.60
2023-05-02T20:03:40.109Z,8.88
2023-05-02T20:08:45.213Z,6.57
2023-05-02T20:18:53.023Z,5.32
2023-05-02T20:23:57.841Z,11.32
2023-05-02T20:34:04.880Z,9.80
2023-05-02T20:39:10.285Z,9.15
2023-05-02T20:44:17.170Z,6.97
2023-05-02T20:49:20.954Z,6.68
2023-05-02T20:54:25.894Z,7.93
2023-05-02T20:59:29.500Z,7.95
2023-05-02T21:04:33.186Z,6.82
2023-05-02T21:09:38.085Z,6.03
2023-05-02T21:19:44.690Z,10.80
2023-05-02T21:24:50.358Z,9.18
2023-05-02T21:29:53.807Z,7.38
2023-05-02T21:34:57.302Z,7.18
2023-05-02T21:40:02.477Z,6.15
2023-05-02T21:45:08.129Z,7.75
2023-05-02T21:50:12.179Z,8.98
2023-05-02T21:55:17.367Z,6.85
2023-05-02T22:00:21.795Z,5.15
2023-05-02T22:05:25.256Z,4.88
2023-05-02T22:10:31.433Z,6.68
2023-05-02T22:15:34.914Z,6.65
2023-05-02T22:20:38.386Z,6.40
2023-05-02T22:25:44.997Z,6.28
2023-05-02T22:30:48.530Z,4.78
2023-05-02T22:35:51.972Z,4.93
2023-05-02T22:40:56.878Z,4.75
2023-05-02T22:51:03.725Z,5.75
2023-05-02T22:56:09.130Z,8.00
2023-05-02T23:01:12.700Z,7.43
2023-05-02T23:06:16.265Z,4.85
2023-05-02T23:11:21.421Z,6.43
2023-05-02T23:16:24.928Z,5.95
2023-05-02T23:21:28.574Z,5.80
2023-05-02T23:26:33.511Z,6.93
2023-05-02T23:36:40.589Z,6.88
2023-05-02T23:41:45.490Z,5.72
2023-05-02T23:51:52.445Z,6.07
2023-05-02T23:56:58.650Z,7.07
